sensor_id;sensor_type;location;lat;lon;timestamp;temperature;humidity
73277;DHT22;61501;43.316;5.372;2022-11-14T00:00:07;14.50;91.90
73277;DHT22;61501;43.316;5.372;2022-11-14T00:02:33;14.50;91.90
73277;DHT22;61501;43.316;5.372;2022-11-14T00:04:58;14.40;92.00
73277;DHT22;61501;43.316;5.372;2022-11-14T00:07:24;14.40;92.20
73277;DHT22;61501;43.316;5.372;2022-11-14T00:09:50;14.30;92.30
73277;DHT22;61501;43.316;5.372;2022-11-14T00:12:15;14.30;92.40
73277;DHT22;61501;43.316;5.372;2022-11-14T00:14:41;14.30;92.30
73277;DHT22;61501;43.316;5.372;2022-11-14T00:17:07;14.20;92.50
73277;DHT22;61501;43.316;5.372;2022-11-14T00:19:32;14.20;92.60
73277;DHT22;61501;43.316;5.372;2022-11-14T00:21:58;14.20;92.60
73277;DHT22;61501;43.316;5.372;2022-11-14T00:24:24;14.20;92.40
73277;DHT22;61501;43.316;5.372;2022-11-14T00:26:50;14.30;92.30
73277;DHT22;61501;43.316;5.372;2022-11-14T00:29:16;14.20;92.00
73277;DHT22;61501;43.316;5.372;2022-11-14T00:31:41;14.30;91.90
73277;DHT22;61501;43.316;5.372;2022-11-14T00:34:08;14.40;91.30
73277;DHT22;61501;43.316;5.372;2022-11-14T00:36:34;14.40;91.50
73277;DHT22;61501;43.316;5.372;2022-11-14T00:38:59;14.40;91.50
73277;DHT22;61501;43.316;5.372;2022-11-14T00:41:25;14.40;91.40
73277;DHT22;61501;43.316;5.372;2022-11-14T00:43:51;14.40;91.40
73277;DHT22;61501;43.316;5.372;2022-11-14T00:46:16;14.40;91.40
73277;DHT22;61501;43.316;5.372;2022-11-14T00:48:42;14.30;91.30
73277;DHT22;61501;43.316;5.372;2022-11-14T00:51:08;14.30;91.40
73277;DHT22;61501;43.316;5.372;2022-11-14T00:53:33;14.30;91.30
73277;DHT22;61501;43.316;5.372;2022-11-14T00:55:59;14.30;91.20
73277;DHT22;61501;43.316;5.372;2022-11-14T00:58:25;14.30;91.20
73277;DHT22;61501;43.316;5.372;2022-11-14T01:00:51;14.30;91.40
73277;DHT22;61501;43.316;5.372;2022-11-14T01:03:17;14.40;91.20
73277;DHT22;61501;43.316;5.372;2022-11-14T01:05:48;14.40;91.10
73277;DHT22;61501;43.316;5.372;2022-11-14T01:08:16;14.40;91.00
73277;DHT22;61501;43.316;5.372;2022-11-14T01:10:45;14.40;90.80
73277;DHT22;61501;43.316;5.372;2022-11-14T01:13:11;14.50;91.00
73277;DHT22;61501;43.316;5.372;2022-11-14T01:15:43;14.50;90.90
73277;DHT22;61501;43.316;5.372;2022-11-14T01:18:14;14.50;90.90
73277;DHT22;61501;43.316;5.372;2022-11-14T01:20:41;14.40;91.00
73277;DHT22;61501;43.316;5.372;2022-11-14T01:23:08;14.40;91.10
73277;DHT22;61501;43.316;5.372;2022-11-14T01:25:35;14.40;91.10
73277;DHT22;61501;43.316;5.372;2022-11-14T01:28:04;14.40;91.10
73277;DHT22;61501;43.316;5.372;2022-11-14T01:30:30;14.30;91.10
73277;DHT22;61501;43.316;5.372;2022-11-14T01:32:55;14.30;91.50
73277;DHT22;61501;43.316;5.372;2022-11-14T01:35:21;14.30;91.20
73277;DHT22;61501;43.316;5.372;2022-11-14T01:37:46;14.30;91.40
73277;DHT22;61501;43.316;5.372;2022-11-14T01:40:12;14.30;91.40
73277;DHT22;61501;43.316;5.372;2022-11-14T01:42:38;14.30;91.50
73277;DHT22;61501;43.316;5.372;2022-11-14T01:48:26;14.20;91.80
73277;DHT22;61501;43.316;5.372;2022-11-14T01:51:01;14.20;91.70
73277;DHT22;61501;43.316;5.372;2022-11-14T01:53:27;14.10;91.60
73277;DHT22;61501;43.316;5.372;2022-11-14T01:55:56;14.20;91.70
73277;DHT22;61501;43.316;5.372;2022-11-14T01:58:22;14.10;91.60
73277;DHT22;61501;43.316;5.372;2022-11-14T02:00:48;14.10;91.60
73277;DHT22;61501;43.316;5.372;2022-11-14T02:03:15;14.10;91.70
73277;DHT22;61501;43.316;5.372;2022-11-14T02:05:41;14.10;91.90
73277;DHT22;61501;43.316;5.372;2022-11-14T02:08:11;14.10;91.90
73277;DHT22;61501;43.316;5.372;2022-11-14T02:10:38;14.10;91.90
73277;DHT22;61501;43.316;5.372;2022-11-14T02:13:04;14.10;91.90
73277;DHT22;61501;43.316;5.372;2022-11-14T02:15:30;14.10;91.90
73277;DHT22;61501;43.316;5.372;2022-11-14T02:17:56;14.10;91.90
73277;DHT22;61501;43.316;5.372;2022-11-14T02:20:26;14.10;91.90
73277;DHT22;61501;43.316;5.372;2022-11-14T02:22:57;14.00;92.10
73277;DHT22;61501;43.316;5.372;2022-11-14T02:25:23;14.00;92.30
73277;DHT22;61501;43.316;5.372;2022-11-14T02:27:50;14.00;92.50
73277;DHT22;61501;43.316;5.372;2022-11-14T02:30:20;14.00;92.50
73277;DHT22;61501;43.316;5.372;2022-11-14T02:32:46;14.00;92.60
73277;DHT22;61501;43.316;5.372;2022-11-14T02:35:12;14.00;92.50
73277;DHT22;61501;43.316;5.372;2022-11-14T02:37:38;14.00;92.60
73277;DHT22;61501;43.316;5.372;2022-11-14T02:40:04;14.10;92.60
73277;DHT22;61501;43.316;5.372;2022-11-14T02:42:30;14.20;92.50
73277;DHT22;61501;43.316;5.372;2022-11-14T02:44:55;14.30;92.40
73277;DHT22;61501;43.316;5.372;2022-11-14T02:47:21;14.30;92.30
73277;DHT22;61501;43.316;5.372;2022-11-14T02:49:49;14.40;92.10
73277;DHT22;61501;43.316;5.372;2022-11-14T02:52:15;14.40;92.30
73277;DHT22;61501;43.316;5.372;2022-11-14T02:54:41;14.40;92.20
73277;DHT22;61501;43.316;5.372;2022-11-14T02:57:07;14.40;92.70
73277;DHT22;61501;43.316;5.372;2022-11-14T02:59:32;14.40;92.10
73277;DHT22;61501;43.316;5.372;2022-11-14T03:01:58;14.40;92.30
73277;DHT22;61501;43.316;5.372;2022-11-14T03:04:23;14.40;92.30
73277;DHT22;61501;43.316;5.372;2022-11-14T03:06:49;14.40;92.30
73277;DHT22;61501;43.316;5.372;2022-11-14T03:09:15;14.50;92.20
73277;DHT22;61501;43.316;5.372;2022-11-14T03:11:40;14.40;92.20
73277;DHT22;61501;43.316;5.372;2022-11-14T03:14:06;14.40;92.30
73277;DHT22;61501;43.316;5.372;2022-11-14T03:16:32;14.50;92.10
73277;DHT22;61501;43.316;5.372;2022-11-14T03:18:57;14.50;92.00
73277;DHT22;61501;43.316;5.372;2022-11-14T03:21:23;14.50;92.10
73277;DHT22;61501;43.316;5.372;2022-11-14T03:23:49;14.50;92.20
73277;DHT22;61501;43.316;5.372;2022-11-14T03:26:15;14.50;92.60
73277;DHT22;61501;43.316;5.372;2022-11-14T03:28:41;14.50;92.30
73277;DHT22;61501;43.316;5.372;2022-11-14T03:31:09;14.40;92.30
73277;DHT22;61501;43.316;5.372;2022-11-14T03:33:35;14.40;92.50
73277;DHT22;61501;43.316;5.372;2022-11-14T03:36:01;14.40;92.40
73277;DHT22;61501;43.316;5.372;2022-11-14T03:38:27;14.40;92.50
73277;DHT22;61501;43.316;5.372;2022-11-14T03:40:52;14.50;92.70
73277;DHT22;61501;43.316;5.372;2022-11-14T03:43:19;14.40;92.60
73277;DHT22;61501;43.316;5.372;2022-11-14T03:45:45;14.50;92.60
73277;DHT22;61501;43.316;5.372;2022-11-14T03:48:11;14.50;92.60
73277;DHT22;61501;43.316;5.372;2022-11-14T03:50:37;14.50;92.40
73277;DHT22;61501;43.316;5.372;2022-11-14T03:53:03;14.50;92.00
73277;DHT22;61501;43.316;5.372;2022-11-14T03:55:29;14.60;91.60
73277;DHT22;61501;43.316;5.372;2022-11-14T03:57:54;14.70;91.00
73277;DHT22;61501;43.316;5.372;2022-11-14T04:00:20;14.70;90.70
73277;DHT22;61501;43.316;5.372;2022-11-14T04:02:46;14.80;90.50
73277;DHT22;61501;43.316;5.372;2022-11-14T04:05:15;14.70;90.30
73277;DHT22;61501;43.316;5.372;2022-11-14T04:07:40;14.80;90.30
73277;DHT22;61501;43.316;5.372;2022-11-14T04:10:21;14.80;90.00
73277;DHT22;61501;43.316;5.372;2022-11-14T04:12:49;14.80;89.80
73277;DHT22;61501;43.316;5.372;2022-11-14T04:15:15;14.90;89.90
73277;DHT22;61501;43.316;5.372;2022-11-14T04:17:41;14.90;89.60
73277;DHT22;61501;43.316;5.372;2022-11-14T04:20:07;14.90;89.10
73277;DHT22;61501;43.316;5.372;2022-11-14T04:22:33;14.90;89.50
73277;DHT22;61501;43.316;5.372;2022-11-14T04:24:58;14.90;90.10
73277;DHT22;61501;43.316;5.372;2022-11-14T04:27:24;15.00;89.40
73277;DHT22;61501;43.316;5.372;2022-11-14T04:29:49;15.00;89.30
73277;DHT22;61501;43.316;5.372;2022-11-14T04:32:15;15.00;89.50
73277;DHT22;61501;43.316;5.372;2022-11-14T04:34:41;15.00;89.60
73277;DHT22;61501;43.316;5.372;2022-11-14T04:37:06;15.00;89.60
73277;DHT22;61501;43.316;5.372;2022-11-14T04:39:32;15.00;90.00
73277;DHT22;61501;43.316;5.372;2022-11-14T04:41:57;15.00;90.00
73277;DHT22;61501;43.316;5.372;2022-11-14T04:44:23;15.00;90.20
73277;DHT22;61501;43.316;5.372;2022-11-14T04:46:49;15.00;90.30
73277;DHT22;61501;43.316;5.372;2022-11-14T04:49:14;15.00;90.60
73277;DHT22;61501;43.316;5.372;2022-11-14T04:51:40;15.00;90.90
73277;DHT22;61501;43.316;5.372;2022-11-14T04:54:05;15.00;91.10
73277;DHT22;61501;43.316;5.372;2022-11-14T04:56:31;15.00;91.20
73277;DHT22;61501;43.316;5.372;2022-11-14T04:58:57;15.10;91.50
73277;DHT22;61501;43.316;5.372;2022-11-14T05:01:22;15.10;91.40
73277;DHT22;61501;43.316;5.372;2022-11-14T05:03:48;15.10;91.40
73277;DHT22;61501;43.316;5.372;2022-11-14T05:06:13;15.10;91.40
73277;DHT22;61501;43.316;5.372;2022-11-14T05:08:39;15.00;91.50
73277;DHT22;61501;43.316;5.372;2022-11-14T05:11:05;15.00;91.70
73277;DHT22;61501;43.316;5.372;2022-11-14T05:13:30;15.10;91.60
73277;DHT22;61501;43.316;5.372;2022-11-14T05:16:00;15.10;91.70
73277;DHT22;61501;43.316;5.372;2022-11-14T05:18:26;15.10;91.80
73277;DHT22;61501;43.316;5.372;2022-11-14T05:20:51;15.10;91.90
73277;DHT22;61501;43.316;5.372;2022-11-14T05:23:19;15.10;92.00
73277;DHT22;61501;43.316;5.372;2022-11-14T05:25:45;15.10;92.00
73277;DHT22;61501;43.316;5.372;2022-11-14T05:28:11;15.10;92.20
73277;DHT22;61501;43.316;5.372;2022-11-14T05:30:37;15.00;92.20
73277;DHT22;61501;43.316;5.372;2022-11-14T05:33:02;15.00;92.20
73277;DHT22;61501;43.316;5.372;2022-11-14T05:35:28;15.00;92.30
73277;DHT22;61501;43.316;5.372;2022-11-14T05:37:54;15.00;92.50
73277;DHT22;61501;43.316;5.372;2022-11-14T05:40:19;15.00;93.00
73277;DHT22;61501;43.316;5.372;2022-11-14T05:42:45;15.00;93.00
73277;DHT22;61501;43.316;5.372;2022-11-14T05:45:10;15.10;92.90
73277;DHT22;61501;43.316;5.372;2022-11-14T05:47:36;15.10;93.00
73277;DHT22;61501;43.316;5.372;2022-11-14T05:50:02;15.10;93.00
73277;DHT22;61501;43.316;5.372;2022-11-14T05:52:29;15.10;93.00
73277;DHT22;61501;43.316;5.372;2022-11-14T05:54:54;15.10;93.10
73277;DHT22;61501;43.316;5.372;2022-11-14T05:57:20;15.10;93.10
73277;DHT22;61501;43.316;5.372;2022-11-14T05:59:45;15.10;93.00
73277;DHT22;61501;43.316;5.372;2022-11-14T06:02:11;15.10;93.00
73277;DHT22;61501;43.316;5.372;2022-11-14T06:04:37;15.00;93.60
73277;DHT22;61501;43.316;5.372;2022-11-14T06:07:02;15.00;93.20
73277;DHT22;61501;43.316;5.372;2022-11-14T06:09:28;15.00;93.20
73277;DHT22;61501;43.316;5.372;2022-11-14T06:11:54;15.00;93.20
73277;DHT22;61501;43.316;5.372;2022-11-14T06:14:19;15.00;93.30
73277;DHT22;61501;43.316;5.372;2022-11-14T06:16:45;15.00;93.30
73277;DHT22;61501;43.316;5.372;2022-11-14T06:19:10;14.90;93.20
73277;DHT22;61501;43.316;5.372;2022-11-14T06:21:36;15.00;93.30
73277;DHT22;61501;43.316;5.372;2022-11-14T06:24:02;15.00;93.40
73277;DHT22;61501;43.316;5.372;2022-11-14T06:26:29;15.00;93.50
73277;DHT22;61501;43.316;5.372;2022-11-14T06:28:56;14.90;93.60
73277;DHT22;61501;43.316;5.372;2022-11-14T06:31:22;15.00;93.60
73277;DHT22;61501;43.316;5.372;2022-11-14T06:33:48;15.00;93.70
73277;DHT22;61501;43.316;5.372;2022-11-14T06:36:14;15.00;93.70
73277;DHT22;61501;43.316;5.372;2022-11-14T06:38:40;15.10;93.70
73277;DHT22;61501;43.316;5.372;2022-11-14T06:43:37;15.10;93.60
73277;DHT22;61501;43.316;5.372;2022-11-14T06:46:03;15.10;93.70
73277;DHT22;61501;43.316;5.372;2022-11-14T06:48:29;15.20;93.70
73277;DHT22;61501;43.316;5.372;2022-11-14T06:50:56;15.20;93.60
73277;DHT22;61501;43.316;5.372;2022-11-14T06:53:23;15.30;93.60
73277;DHT22;61501;43.316;5.372;2022-11-14T06:55:57;15.30;93.50
73277;DHT22;61501;43.316;5.372;2022-11-14T06:58:25;15.30;93.50
73277;DHT22;61501;43.316;5.372;2022-11-14T07:00:51;15.30;93.40
73277;DHT22;61501;43.316;5.372;2022-11-14T07:03:16;15.40;93.30
73277;DHT22;61501;43.316;5.372;2022-11-14T07:05:42;15.40;93.20
73277;DHT22;61501;43.316;5.372;2022-11-14T07:08:08;15.50;93.20
73277;DHT22;61501;43.316;5.372;2022-11-14T07:10:33;15.50;93.00
73277;DHT22;61501;43.316;5.372;2022-11-14T07:12:59;15.50;93.00
73277;DHT22;61501;43.316;5.372;2022-11-14T07:15:25;15.50;93.10
73277;DHT22;61501;43.316;5.372;2022-11-14T07:17:50;15.60;93.00
73277;DHT22;61501;43.316;5.372;2022-11-14T07:20:16;15.60;93.00
73277;DHT22;61501;43.316;5.372;2022-11-14T07:22:45;15.70;92.90
73277;DHT22;61501;43.316;5.372;2022-11-14T07:25:12;15.70;92.50
73277;DHT22;61501;43.316;5.372;2022-11-14T07:27:37;15.80;92.30
73277;DHT22;61501;43.316;5.372;2022-11-14T07:30:03;15.80;92.10
73277;DHT22;61501;43.316;5.372;2022-11-14T07:32:29;15.80;92.10
73277;DHT22;61501;43.316;5.372;2022-11-14T07:34:55;15.80;92.20
73277;DHT22;61501;43.316;5.372;2022-11-14T07:37:20;15.80;92.00
73277;DHT22;61501;43.316;5.372;2022-11-14T07:39:46;15.90;92.00
73277;DHT22;61501;43.316;5.372;2022-11-14T07:42:12;15.80;91.80
73277;DHT22;61501;43.316;5.372;2022-11-14T07:44:37;15.90;91.80
73277;DHT22;61501;43.316;5.372;2022-11-14T07:47:03;15.90;91.70
73277;DHT22;61501;43.316;5.372;2022-11-14T07:49:28;15.90;91.50
73277;DHT22;61501;43.316;5.372;2022-11-14T07:51:54;16.00;91.40
73277;DHT22;61501;43.316;5.372;2022-11-14T07:54:19;16.00;91.30
73277;DHT22;61501;43.316;5.372;2022-11-14T07:56:45;16.00;91.30
73277;DHT22;61501;43.316;5.372;2022-11-14T07:59:11;16.00;91.20
73277;DHT22;61501;43.316;5.372;2022-11-14T08:01:36;16.10;91.00
73277;DHT22;61501;43.316;5.372;2022-11-14T08:04:02;16.10;91.20
73277;DHT22;61501;43.316;5.372;2022-11-14T08:06:27;16.10;90.80
73277;DHT22;61501;43.316;5.372;2022-11-14T08:08:53;16.20;90.70
73277;DHT22;61501;43.316;5.372;2022-11-14T08:11:19;16.20;90.80
73277;DHT22;61501;43.316;5.372;2022-11-14T08:14:03;16.20;90.80
73277;DHT22;61501;43.316;5.372;2022-11-14T08:16:28;16.20;90.90
73277;DHT22;61501;43.316;5.372;2022-11-14T08:18:54;16.20;91.00
73277;DHT22;61501;43.316;5.372;2022-11-14T08:21:19;16.30;91.00
73277;DHT22;61501;43.316;5.372;2022-11-14T08:23:45;16.30;91.00
73277;DHT22;61501;43.316;5.372;2022-11-14T08:26:11;16.40;91.00
73277;DHT22;61501;43.316;5.372;2022-11-14T08:28:36;16.40;91.10
73277;DHT22;61501;43.316;5.372;2022-11-14T08:31:03;16.40;90.90
73277;DHT22;61501;43.316;5.372;2022-11-14T08:33:29;16.40;90.90
73277;DHT22;61501;43.316;5.372;2022-11-14T08:35:58;16.50;90.80
73277;DHT22;61501;43.316;5.372;2022-11-14T08:38:24;16.50;90.90
73277;DHT22;61501;43.316;5.372;2022-11-14T08:40:49;16.60;91.30
73277;DHT22;61501;43.316;5.372;2022-11-14T08:43:15;16.50;90.70
73277;DHT22;61501;43.316;5.372;2022-11-14T08:45:41;16.50;90.80
73277;DHT22;61501;43.316;5.372;2022-11-14T08:48:06;16.50;90.80
73277;DHT22;61501;43.316;5.372;2022-11-14T08:50:32;16.60;90.70
73277;DHT22;61501;43.316;5.372;2022-11-14T08:52:57;16.60;90.70
73277;DHT22;61501;43.316;5.372;2022-11-14T08:55:23;16.60;90.70
73277;DHT22;61501;43.316;5.372;2022-11-14T08:57:52;16.70;90.50
73277;DHT22;61501;43.316;5.372;2022-11-14T09:00:18;16.70;90.40
73277;DHT22;61501;43.316;5.372;2022-11-14T09:02:43;16.70;90.40
73277;DHT22;61501;43.316;5.372;2022-11-14T09:05:09;16.80;90.20
73277;DHT22;61501;43.316;5.372;2022-11-14T09:07:35;16.80;90.00
73277;DHT22;61501;43.316;5.372;2022-11-14T09:10:02;16.80;90.00
73277;DHT22;61501;43.316;5.372;2022-11-14T09:12:28;16.80;90.20
73277;DHT22;61501;43.316;5.372;2022-11-14T09:14:53;16.80;90.10
73277;DHT22;61501;43.316;5.372;2022-11-14T09:17:19;16.90;89.80
73277;DHT22;61501;43.316;5.372;2022-11-14T09:19:44;16.90;89.80
73277;DHT22;61501;43.316;5.372;2022-11-14T09:22:10;16.90;89.80
73277;DHT22;61501;43.316;5.372;2022-11-14T09:24:35;16.90;89.70
73277;DHT22;61501;43.316;5.372;2022-11-14T09:27:01;16.90;89.90
73277;DHT22;61501;43.316;5.372;2022-11-14T09:29:27;17.00;89.90
73277;DHT22;61501;43.316;5.372;2022-11-14T09:31:52;16.90;89.90
73277;DHT22;61501;43.316;5.372;2022-11-14T09:34:19;17.00;90.30
73277;DHT22;61501;43.316;5.372;2022-11-14T09:36:45;17.00;89.80
73277;DHT22;61501;43.316;5.372;2022-11-14T09:39:11;16.90;90.10
73277;DHT22;61501;43.316;5.372;2022-11-14T09:44:43;17.00;90.00
73277;DHT22;61501;43.316;5.372;2022-11-14T09:47:15;17.00;89.80
73277;DHT22;61501;43.316;5.372;2022-11-14T09:49:46;17.00;89.60
73277;DHT22;61501;43.316;5.372;2022-11-14T09:52:36;17.00;89.50
73277;DHT22;61501;43.316;5.372;2022-11-14T09:55:12;17.00;89.30
73277;DHT22;61501;43.316;5.372;2022-11-14T09:57:42;17.10;89.30
73277;DHT22;61501;43.316;5.372;2022-11-14T10:00:17;17.10;89.00
73277;DHT22;61501;43.316;5.372;2022-11-14T10:06:00;17.20;88.80
73277;DHT22;61501;43.316;5.372;2022-11-14T10:08:42;17.20;88.70
73277;DHT22;61501;43.316;5.372;2022-11-14T10:11:17;17.20;88.60
73277;DHT22;61501;43.316;5.372;2022-11-14T10:17:02;17.30;88.20
73277;DHT22;61501;43.316;5.372;2022-11-14T10:23:04;17.30;88.30
73277;DHT22;61501;43.316;5.372;2022-11-14T10:28:39;17.50;88.00
73277;DHT22;61501;43.316;5.372;2022-11-14T10:37:04;17.60;86.80
73277;DHT22;61501;43.316;5.372;2022-11-14T10:39:49;17.50;87.10
73277;DHT22;61501;43.316;5.372;2022-11-14T10:47:47;17.70;86.10
73277;DHT22;61501;43.316;5.372;2022-11-14T10:50:19;17.70;86.30
73277;DHT22;61501;43.316;5.372;2022-11-14T10:52:46;17.70;86.30
73277;DHT22;61501;43.316;5.372;2022-11-14T10:55:17;17.70;85.80
73277;DHT22;61501;43.316;5.372;2022-11-14T10:57:46;17.70;85.70
73277;DHT22;61501;43.316;5.372;2022-11-14T11:00:15;17.70;86.00
73277;DHT22;61501;43.316;5.372;2022-11-14T11:02:52;17.70;85.80
73277;DHT22;61501;43.316;5.372;2022-11-14T11:05:23;17.80;85.50
73277;DHT22;61501;43.316;5.372;2022-11-14T11:07:49;17.90;85.20
73277;DHT22;61501;43.316;5.372;2022-11-14T11:10:38;17.80;85.30
73277;DHT22;61501;43.316;5.372;2022-11-14T11:13:36;17.80;85.60
73277;DHT22;61501;43.316;5.372;2022-11-14T11:16:04;17.90;84.80
73277;DHT22;61501;43.316;5.372;2022-11-14T11:18:33;17.90;84.80
73277;DHT22;61501;43.316;5.372;2022-11-14T11:21:08;18.10;84.50
73277;DHT22;61501;43.316;5.372;2022-11-14T11:23:36;18.20;83.10
73277;DHT22;61501;43.316;5.372;2022-11-14T11:28:31;18.40;82.20
73277;DHT22;61501;43.316;5.372;2022-11-14T11:31:00;18.50;81.60
73277;DHT22;61501;43.316;5.372;2022-11-14T11:33:29;18.50;81.60
73277;DHT22;61501;43.316;5.372;2022-11-14T11:36:39;18.60;81.40
73277;DHT22;61501;43.316;5.372;2022-11-14T11:38:46;18.60;80.90
73277;DHT22;61501;43.316;5.372;2022-11-14T11:41:31;18.60;81.20
73277;DHT22;61501;43.316;5.372;2022-11-14T11:44:09;18.60;80.90
73277;DHT22;61501;43.316;5.372;2022-11-14T11:49:25;18.60;80.90
73277;DHT22;61501;43.316;5.372;2022-11-14T11:51:54;18.60;81.10
73277;DHT22;61501;43.316;5.372;2022-11-14T11:54:23;18.60;81.00
73277;DHT22;61501;43.316;5.372;2022-11-14T11:56:53;18.70;80.40
73277;DHT22;61501;43.316;5.372;2022-11-14T11:59:39;18.70;80.60
73277;DHT22;61501;43.316;5.372;2022-11-14T12:02:31;18.70;80.20
73277;DHT22;61501;43.316;5.372;2022-11-14T12:04:59;18.70;80.40
73277;DHT22;61501;43.316;5.372;2022-11-14T12:10:14;19.10;79.20
73277;DHT22;61501;43.316;5.372;2022-11-14T12:30:11;19.00;80.00
73277;DHT22;61501;43.316;5.372;2022-11-14T12:32:57;19.00;79.60
73277;DHT22;61501;43.316;5.372;2022-11-14T12:35:30;19.00;79.10
73277;DHT22;61501;43.316;5.372;2022-11-14T12:37:58;19.10;79.50
73277;DHT22;61501;43.316;5.372;2022-11-14T12:40:28;19.10;79.40
73277;DHT22;61501;43.316;5.372;2022-11-14T12:42:57;19.10;79.50
73277;DHT22;61501;43.316;5.372;2022-11-14T12:50:51;19.30;79.30
73277;DHT22;61501;43.316;5.372;2022-11-14T13:09:57;19.10;79.80
73277;DHT22;61501;43.316;5.372;2022-11-14T13:12:30;19.20;79.90
73277;DHT22;61501;43.316;5.372;2022-11-14T13:15:22;19.10;79.90
73277;DHT22;61501;43.316;5.372;2022-11-14T13:21:03;19.00;81.10
73277;DHT22;61501;43.316;5.372;2022-11-14T13:26:35;19.00;81.10
73277;DHT22;61501;43.316;5.372;2022-11-14T13:28:59;19.00;81.40
73277;DHT22;61501;43.316;5.372;2022-11-14T13:37:33;19.10;80.80
73277;DHT22;61501;43.316;5.372;2022-11-14T13:40:19;19.10;81.20
73277;DHT22;61501;43.316;5.372;2022-11-14T13:51:02;18.90;82.70
73277;DHT22;61501;43.316;5.372;2022-11-14T13:53:30;18.80;83.20
73277;DHT22;61501;43.316;5.372;2022-11-14T14:07:25;18.60;84.50
73277;DHT22;61501;43.316;5.372;2022-11-14T14:13:10;18.50;85.40
73277;DHT22;61501;43.316;5.372;2022-11-14T14:16:03;18.50;85.70
73277;DHT22;61501;43.316;5.372;2022-11-14T14:21:32;18.40;85.60
73277;DHT22;61501;43.316;5.372;2022-11-14T14:32:13;18.60;84.60
73277;DHT22;61501;43.316;5.372;2022-11-14T14:34:40;18.50;84.60
73277;DHT22;61501;43.316;5.372;2022-11-14T14:37:20;18.60;84.20
73277;DHT22;61501;43.316;5.372;2022-11-14T14:40:03;18.50;84.60
73277;DHT22;61501;43.316;5.372;2022-11-14T14:42:33;18.40;85.00
73277;DHT22;61501;43.316;5.372;2022-11-14T14:45:02;18.40;85.40
73277;DHT22;61501;43.316;5.372;2022-11-14T14:50:02;18.30;85.80
73277;DHT22;61501;43.316;5.372;2022-11-14T14:52:34;18.40;85.70
73277;DHT22;61501;43.316;5.372;2022-11-14T14:55:02;18.30;86.00
73277;DHT22;61501;43.316;5.372;2022-11-14T14:57:28;18.30;86.40
73277;DHT22;61501;43.316;5.372;2022-11-14T15:00:02;18.30;86.50
73277;DHT22;61501;43.316;5.372;2022-11-14T15:02:28;18.30;86.50
73277;DHT22;61501;43.316;5.372;2022-11-14T15:04:55;18.20;86.80
73277;DHT22;61501;43.316;5.372;2022-11-14T15:07:23;18.20;86.80
73277;DHT22;61501;43.316;5.372;2022-11-14T15:09:59;18.20;86.90
73277;DHT22;61501;43.316;5.372;2022-11-14T15:12:28;18.20;87.20
73277;DHT22;61501;43.316;5.372;2022-11-14T15:14:55;18.20;87.10
73277;DHT22;61501;43.316;5.372;2022-11-14T15:17:21;18.20;87.30
73277;DHT22;61501;43.316;5.372;2022-11-14T15:19:50;18.20;87.40
73277;DHT22;61501;43.316;5.372;2022-11-14T15:27:53;18.80;84.80
73277;DHT22;61501;43.316;5.372;2022-11-14T15:30:30;19.70;81.20
73277;DHT22;61501;43.316;5.372;2022-11-14T15:33:00;20.10;78.50
73277;DHT22;61501;43.316;5.372;2022-11-14T15:35:34;20.50;76.80
73277;DHT22;61501;43.316;5.372;2022-11-14T15:40:37;20.10;77.20
73277;DHT22;61501;43.316;5.372;2022-11-14T15:43:34;19.50;79.80
73277;DHT22;61501;43.316;5.372;2022-11-14T15:46:01;19.00;83.00
73277;DHT22;61501;43.316;5.372;2022-11-14T15:48:27;18.60;85.30
73277;DHT22;61501;43.316;5.372;2022-11-14T15:50:53;18.40;86.60
73277;DHT22;61501;43.316;5.372;2022-11-14T15:53:24;18.30;87.30
73277;DHT22;61501;43.316;5.372;2022-11-14T15:55:50;18.20;87.70
73277;DHT22;61501;43.316;5.372;2022-11-14T15:58:16;18.10;88.20
73277;DHT22;61501;43.316;5.372;2022-11-14T16:00:46;18.10;88.50
73277;DHT22;61501;43.316;5.372;2022-11-14T16:03:19;18.00;88.70
73277;DHT22;61501;43.316;5.372;2022-11-14T16:05:46;18.00;88.80
73277;DHT22;61501;43.316;5.372;2022-11-14T16:08:12;17.90;89.50
73277;DHT22;61501;43.316;5.372;2022-11-14T16:10:38;17.90;90.50
73277;DHT22;61501;43.316;5.372;2022-11-14T16:13:04;17.80;91.20
73277;DHT22;61501;43.316;5.372;2022-11-14T16:15:30;17.80;91.50
73277;DHT22;61501;43.316;5.372;2022-11-14T16:17:56;17.70;91.70
73277;DHT22;61501;43.316;5.372;2022-11-14T16:20:24;17.70;91.70
73277;DHT22;61501;43.316;5.372;2022-11-14T16:22:50;17.60;91.90
73277;DHT22;61501;43.316;5.372;2022-11-14T16:25:30;17.60;92.10
73277;DHT22;61501;43.316;5.372;2022-11-14T16:27:56;17.60;92.00
73277;DHT22;61501;43.316;5.372;2022-11-14T16:30:23;17.60;92.20
73277;DHT22;61501;43.316;5.372;2022-11-14T16:32:50;17.50;92.10
73277;DHT22;61501;43.316;5.372;2022-11-14T16:35:17;17.50;92.10
73277;DHT22;61501;43.316;5.372;2022-11-14T16:37:43;17.50;92.20
73277;DHT22;61501;43.316;5.372;2022-11-14T16:40:27;17.50;92.30
73277;DHT22;61501;43.316;5.372;2022-11-14T16:42:54;17.50;92.30
73277;DHT22;61501;43.316;5.372;2022-11-14T16:45:20;17.40;92.30
73277;DHT22;61501;43.316;5.372;2022-11-14T16:47:47;17.40;92.50
73277;DHT22;61501;43.316;5.372;2022-11-14T16:50:13;17.40;92.60
73277;DHT22;61501;43.316;5.372;2022-11-14T16:52:39;17.50;92.60
73277;DHT22;61501;43.316;5.372;2022-11-14T16:55:09;17.50;92.60
73277;DHT22;61501;43.316;5.372;2022-11-14T16:57:35;17.50;92.50
73277;DHT22;61501;43.316;5.372;2022-11-14T17:00:07;17.50;92.40
73277;DHT22;61501;43.316;5.372;2022-11-14T17:02:33;17.50;92.40
73277;DHT22;61501;43.316;5.372;2022-11-14T17:04:59;17.50;92.40
73277;DHT22;61501;43.316;5.372;2022-11-14T17:07:24;17.50;92.40
73277;DHT22;61501;43.316;5.372;2022-11-14T17:09:50;17.50;92.50
73277;DHT22;61501;43.316;5.372;2022-11-14T17:12:16;17.40;92.90
73277;DHT22;61501;43.316;5.372;2022-11-14T17:14:41;17.40;93.30
73277;DHT22;61501;43.316;5.372;2022-11-14T17:17:07;17.40;93.90
73277;DHT22;61501;43.316;5.372;2022-11-14T17:19:32;17.40;94.40
73277;DHT22;61501;43.316;5.372;2022-11-14T17:21:58;17.40;94.80
73277;DHT22;61501;43.316;5.372;2022-11-14T17:24:23;17.30;95.10
73277;DHT22;61501;43.316;5.372;2022-11-14T17:26:49;17.40;95.00
73277;DHT22;61501;43.316;5.372;2022-11-14T17:29:15;17.30;95.10
73277;DHT22;61501;43.316;5.372;2022-11-14T17:31:40;17.30;95.50
73277;DHT22;61501;43.316;5.372;2022-11-14T17:34:08;17.30;95.80
73277;DHT22;61501;43.316;5.372;2022-11-14T17:36:34;17.30;96.10
73277;DHT22;61501;43.316;5.372;2022-11-14T17:39:00;17.20;96.50
73277;DHT22;61501;43.316;5.372;2022-11-14T17:41:25;17.10;96.90
73277;DHT22;61501;43.316;5.372;2022-11-14T17:43:53;17.10;97.20
73277;DHT22;61501;43.316;5.372;2022-11-14T17:46:21;17.10;97.40
73277;DHT22;61501;43.316;5.372;2022-11-14T17:48:46;17.10;97.60
73277;DHT22;61501;43.316;5.372;2022-11-14T17:51:13;17.10;97.70